createdAt,value
2022-12-27T17:41:10.332Z,17.55
2022-12-27T17:44:31.458Z,18.48
2022-12-27T17:47:20.495Z,20.35
2022-12-27T17:49:47.741Z,18.17
2022-12-27T17:52:39.870Z,18.35
2022-12-27T17:55:37.631Z,16.15
2022-12-27T17:58:09.775Z,14.82
2022-12-27T18:00:59.321Z,13.82
2022-12-27T18:03:36.020Z,12.75
2022-12-27T18:06:03.849Z,11.32
2022-12-27T18:08:34.029Z,10.77
2022-12-27T18:11:03.523Z,10.73
2022-12-27T18:13:39.027Z,9.38
2022-12-27T18:16:22.819Z,9.20
2022-12-27T18:18:53.780Z,7.97
2022-12-27T18:21:27.718Z,6.72
2022-12-27T18:23:55.518Z,7.28
2022-12-27T18:26:35.487Z,6.15
2022-12-27T18:29:02.336Z,5.30
2022-12-27T18:31:36.706Z,5.40
2022-12-27T18:34:29.138Z,5.43
2022-12-27T18:37:09.965Z,5.00
2022-12-27T18:39:39.208Z,5.20
2022-12-27T18:42:35.395Z,5.25
2022-12-27T18:45:27.473Z,4.30
2022-12-27T18:48:00.130Z,4.95
2022-12-27T18:50:30.227Z,4.80
2022-12-27T18:53:22.611Z,4.30
2022-12-27T18:56:02.282Z,5.60
2022-12-27T18:58:29.091Z,5.13
2022-12-27T19:01:19.264Z,5.03
2022-12-27T19:04:14.190Z,4.78
2022-12-27T19:09:43.221Z,4.55
2022-12-27T19:12:34.160Z,5.53
2022-12-27T19:15:02.211Z,5.15
2022-12-27T19:17:31.220Z,5.13
2022-12-27T19:20:05.692Z,5.35
2022-12-27T19:22:53.100Z,4.47
2022-12-27T19:25:35.960Z,4.75
2022-12-27T19:28:30.506Z,4.68
2022-12-27T19:31:16.234Z,4.30
2022-12-27T19:33:48.164Z,4.38
2022-12-27T19:36:15.155Z,4.10
2022-12-27T19:38:47.577Z,4.07
2022-12-27T19:41:16.158Z,3.90
2022-12-27T19:43:46.147Z,4.03
2022-12-27T19:46:14.798Z,3.55
2022-12-27T19:48:41.831Z,3.58
2022-12-27T19:51:16.357Z,4.15
2022-12-27T19:53:52.309Z,3.33
2022-12-27T19:56:22.437Z,2.97
2022-12-27T19:58:49.851Z,3.42
2022-12-27T20:01:16.737Z,2.92
2022-12-27T20:03:43.617Z,2.60
2022-12-27T20:06:14.985Z,3.00
2022-12-27T20:08:50.451Z,2.20
2022-12-27T20:11:21.426Z,2.33
2022-12-27T20:13:49.409Z,1.98
2022-12-27T20:16:18.666Z,2.55
2022-12-27T20:18:46.565Z,1.83
2022-12-27T20:21:19.030Z,1.90
2022-12-27T20:23:46.714Z,1.75
2022-12-27T20:26:18.206Z,2.28
2022-12-27T20:28:45.170Z,2.35
2022-12-27T20:31:16.050Z,2.15
2022-12-27T20:33:43.140Z,1.70
2022-12-27T20:36:11.187Z,1.50
2022-12-27T20:38:39.226Z,1.85
2022-12-27T20:41:12.821Z,2.08
2022-12-27T20:43:40.189Z,1.90
2022-12-27T20:46:27.056Z,2.03
2022-12-27T20:48:55.606Z,2.22
2022-12-27T20:51:28.067Z,1.95
2022-12-27T20:53:58.362Z,1.85
2022-12-27T20:56:25.723Z,1.90
2022-12-27T20:58:52.815Z,1.75
2022-12-27T21:01:25.933Z,1.70
2022-12-27T21:03:55.892Z,1.73
2022-12-27T21:06:26.781Z,1.70
2022-12-27T21:08:57.172Z,2.22
2022-12-27T21:11:33.841Z,1.92
2022-12-27T21:14:03.365Z,2.00
2022-12-27T21:16:33.562Z,2.05
2022-12-27T21:19:04.661Z,1.60
2022-12-27T21:21:34.207Z,1.67
2022-12-27T21:24:01.144Z,2.05
2022-12-27T21:26:35.352Z,1.80
2022-12-27T21:31:31.941Z,1.52
2022-12-27T21:33:59.743Z,1.75
2022-12-27T21:36:30.352Z,2.45
2022-12-27T21:38:57.475Z,1.50
2022-12-27T21:41:31.042Z,1.77
2022-12-27T21:43:57.914Z,2.30
2022-12-27T21:46:32.000Z,2.08
2022-12-27T21:49:05.914Z,1.40
2022-12-27T21:51:34.387Z,2.10
2022-12-27T21:54:02.062Z,1.90
2022-12-27T21:56:30.136Z,1.75
2022-12-27T21:58:58.390Z,1.90
2022-12-27T22:01:51.572Z,1.98
2022-12-27T22:04:18.327Z,1.58
2022-12-27T22:06:47.391Z,1.80
2022-12-27T22:09:15.067Z,1.98
2022-12-27T22:11:42.129Z,1.40
2022-12-27T22:14:08.953Z,1.80
2022-12-27T22:16:38.488Z,1.85
2022-12-27T22:19:08.308Z,1.98
2022-12-27T22:21:37.053Z,2.00
2022-12-27T22:24:04.701Z,1.92
2022-12-27T22:26:37.184Z,1.77
2022-12-27T22:29:05.317Z,2.22
2022-12-27T22:31:37.806Z,2.03
2022-12-27T22:34:06.166Z,1.75
2022-12-27T22:36:33.568Z,1.60
2022-12-27T22:39:00.584Z,1.50
2022-12-27T22:41:33.968Z,1.70
2022-12-27T22:44:07.437Z,1.77
2022-12-27T22:49:21.813Z,1.88
2022-12-27T22:51:48.599Z,1.63
2022-12-27T22:54:15.398Z,2.05
2022-12-27T22:56:43.632Z,1.88
2022-12-27T22:59:16.345Z,1.83
2022-12-27T23:01:44.850Z,1.58
2022-12-27T23:04:13.564Z,1.70
2022-12-27T23:06:41.027Z,2.10
2022-12-27T23:09:08.778Z,1.85
2022-12-27T23:11:38.565Z,2.00
2022-12-27T23:14:16.343Z,1.65
2022-12-27T23:16:47.259Z,1.65
2022-12-27T23:19:16.872Z,1.60
2022-12-27T23:21:44.009Z,1.73
2022-12-27T23:24:11.456Z,2.00
2022-12-27T23:26:38.942Z,2.08
2022-12-27T23:29:06.845Z,1.60
2022-12-27T23:31:34.339Z,1.60
2022-12-27T23:34:01.194Z,1.63
2022-12-27T23:36:28.045Z,2.40
2022-12-27T23:38:55.482Z,1.38
2022-12-27T23:41:24.796Z,1.80
2022-12-27T23:43:54.874Z,2.10
2022-12-27T23:46:32.446Z,2.00
2022-12-27T23:49:02.839Z,1.98
2022-12-27T23:51:31.117Z,1.70
2022-12-27T23:53:58.329Z,1.90
2022-12-27T23:56:27.669Z,1.60
2022-12-27T23:58:57.012Z,1.77
